sensor_id;sensor_type;location;lat;lon;timestamp;P1;durP1;ratioP1;P2;durP2;ratioP2
7359;SDS011;3720;48.274;7.796;2023-12-29T00:02:06;5.80;;;4.00;;
7359;SDS011;3720;48.274;7.796;2023-12-29T00:04:39;6.65;;;4.35;;
7359;SDS011;3720;48.274;7.796;2023-12-29T00:07:12;5.50;;;4.10;;
7359;SDS011;3720;48.274;7.796;2023-12-29T00:09:47;5.03;;;4.13;;
7359;SDS011;3720;48.274;7.796;2023-12-29T00:12:18;5.65;;;4.15;;
7359;SDS011;3720;48.274;7.796;2023-12-29T00:14:50;5.63;;;4.20;;
7359;SDS011;3720;48.274;7.796;2023-12-29T00:17:22;7.10;;;4.28;;
7359;SDS011;3720;48.274;7.796;2023-12-29T00:19:55;7.50;;;4.50;;
7359;SDS011;3720;48.274;7.796;2023-12-29T00:22:27;6.38;;;4.30;;
7359;SDS011;3720;48.274;7.796;2023-12-29T00:24:59;5.30;;;3.85;;
7359;SDS011;3720;48.274;7.796;2023-12-29T00:27:31;6.38;;;4.38;;
7359;SDS011;3720;48.274;7.796;2023-12-29T00:30:03;5.28;;;3.88;;
7359;SDS011;3720;48.274;7.796;2023-12-29T00:32:35;6.38;;;3.80;;
7359;SDS011;3720;48.274;7.796;2023-12-29T00:35:09;6.85;;;4.30;;
7359;SDS011;3720;48.274;7.796;2023-12-29T00:37:41;7.18;;;4.10;;
7359;SDS011;3720;48.274;7.796;2023-12-29T00:40:13;7.07;;;4.50;;
7359;SDS011;3720;48.274;7.796;2023-12-29T00:42:45;7.50;;;4.30;;
7359;SDS011;3720;48.274;7.796;2023-12-29T00:45:17;6.53;;;4.28;;
7359;SDS011;3720;48.274;7.796;2023-12-29T00:47:51;5.22;;;4.25;;
7359;SDS011;3720;48.274;7.796;2023-12-29T00:50:24;6.93;;;4.50;;
7359;SDS011;3720;48.274;7.796;2023-12-29T00:52:56;6.30;;;4.20;;
7359;SDS011;3720;48.274;7.796;2023-12-29T00:55:28;6.78;;;4.40;;
7359;SDS011;3720;48.274;7.796;2023-12-29T00:58:00;6.38;;;4.20;;
7359;SDS011;3720;48.274;7.796;2023-12-29T01:00:32;7.20;;;3.78;;
7359;SDS011;3720;48.274;7.796;2023-12-29T01:03:04;5.78;;;3.90;;
7359;SDS011;3720;48.274;7.796;2023-12-29T01:05:37;5.63;;;4.00;;
7359;SDS011;3720;48.274;7.796;2023-12-29T01:08:09;5.10;;;3.90;;
7359;SDS011;3720;48.274;7.796;2023-12-29T01:10:41;5.30;;;4.00;;
7359;SDS011;3720;48.274;7.796;2023-12-29T01:13:13;7.95;;;4.50;;
7359;SDS011;3720;48.274;7.796;2023-12-29T01:15:45;5.18;;;4.05;;
7359;SDS011;3720;48.274;7.796;2023-12-29T01:18:17;5.72;;;4.22;;
7359;SDS011;3720;48.274;7.796;2023-12-29T01:20:50;6.40;;;4.32;;
7359;SDS011;3720;48.274;7.796;2023-12-29T01:23:22;7.35;;;3.92;;
7359;SDS011;3720;48.274;7.796;2023-12-29T01:25:53;5.57;;;4.13;;
7359;SDS011;3720;48.274;7.796;2023-12-29T01:28:25;5.03;;;3.83;;
7359;SDS011;3720;48.274;7.796;2023-12-29T01:30:57;6.75;;;4.22;;
7359;SDS011;3720;48.274;7.796;2023-12-29T01:33:29;5.70;;;4.43;;
7359;SDS011;3720;48.274;7.796;2023-12-29T01:36:02;6.35;;;4.53;;
7359;SDS011;3720;48.274;7.796;2023-12-29T01:38:34;6.13;;;4.82;;
7359;SDS011;3720;48.274;7.796;2023-12-29T01:41:06;6.10;;;4.35;;
7359;SDS011;3720;48.274;7.796;2023-12-29T01:44:02;6.28;;;4.60;;
7359;SDS011;3720;48.274;7.796;2023-12-29T01:46:53;6.40;;;4.40;;
7359;SDS011;3720;48.274;7.796;2023-12-29T01:49:26;6.43;;;4.45;;
7359;SDS011;3720;48.274;7.796;2023-12-29T01:52:01;5.43;;;4.10;;
7359;SDS011;3720;48.274;7.796;2023-12-29T01:54:34;6.45;;;4.63;;
7359;SDS011;3720;48.274;7.796;2023-12-29T01:57:08;7.05;;;4.72;;
7359;SDS011;3720;48.274;7.796;2023-12-29T01:59:40;7.38;;;4.25;;
7359;SDS011;3720;48.274;7.796;2023-12-29T02:02:12;6.05;;;4.38;;
7359;SDS011;3720;48.274;7.796;2023-12-29T02:04:45;6.38;;;4.45;;
7359;SDS011;3720;48.274;7.796;2023-12-29T02:07:18;6.10;;;4.57;;
7359;SDS011;3720;48.274;7.796;2023-12-29T02:09:51;4.75;;;4.13;;
7359;SDS011;3720;48.274;7.796;2023-12-29T02:12:23;6.63;;;4.70;;
7359;SDS011;3720;48.274;7.796;2023-12-29T02:14:55;5.97;;;4.38;;
7359;SDS011;3720;48.274;7.796;2023-12-29T02:17:27;5.72;;;4.35;;
7359;SDS011;3720;48.274;7.796;2023-12-29T02:20:02;8.30;;;4.22;;
7359;SDS011;3720;48.274;7.796;2023-12-29T02:22:37;6.00;;;4.60;;
7359;SDS011;3720;48.274;7.796;2023-12-29T02:25:10;6.93;;;4.80;;
7359;SDS011;3720;48.274;7.796;2023-12-29T02:27:43;6.75;;;4.63;;
7359;SDS011;3720;48.274;7.796;2023-12-29T02:30:22;7.55;;;5.10;;
7359;SDS011;3720;48.274;7.796;2023-12-29T02:32:59;7.32;;;4.90;;
7359;SDS011;3720;48.274;7.796;2023-12-29T02:35:33;7.60;;;4.60;;
7359;SDS011;3720;48.274;7.796;2023-12-29T02:38:09;8.17;;;5.50;;
7359;SDS011;3720;48.274;7.796;2023-12-29T02:40:42;7.03;;;5.32;;
7359;SDS011;3720;48.274;7.796;2023-12-29T02:43:14;8.48;;;5.60;;
7359;SDS011;3720;48.274;7.796;2023-12-29T02:45:46;6.63;;;5.05;;
7359;SDS011;3720;48.274;7.796;2023-12-29T02:48:18;6.75;;;4.80;;
7359;SDS011;3720;48.274;7.796;2023-12-29T02:50:49;7.78;;;4.85;;
7359;SDS011;3720;48.274;7.796;2023-12-29T02:53:21;6.65;;;5.22;;
7359;SDS011;3720;48.274;7.796;2023-12-29T02:55:55;7.40;;;4.97;;
7359;SDS011;3720;48.274;7.796;2023-12-29T02:58:26;7.50;;;4.90;;
7359;SDS011;3720;48.274;7.796;2023-12-29T03:00:58;6.57;;;4.70;;
7359;SDS011;3720;48.274;7.796;2023-12-29T03:03:30;5.38;;;4.43;;
7359;SDS011;3720;48.274;7.796;2023-12-29T03:06:02;8.52;;;4.43;;
7359;SDS011;3720;48.274;7.796;2023-12-29T03:08:34;7.07;;;4.70;;
7359;SDS011;3720;48.274;7.796;2023-12-29T03:11:07;6.57;;;4.45;;
7359;SDS011;3720;48.274;7.796;2023-12-29T03:13:39;7.88;;;5.00;;
7359;SDS011;3720;48.274;7.796;2023-12-29T03:16:11;7.55;;;4.55;;
7359;SDS011;3720;48.274;7.796;2023-12-29T03:18:43;7.90;;;4.97;;
7359;SDS011;3720;48.274;7.796;2023-12-29T03:21:15;9.10;;;4.88;;
7359;SDS011;3720;48.274;7.796;2023-12-29T03:23:47;6.75;;;5.13;;
7359;SDS011;3720;48.274;7.796;2023-12-29T03:26:20;7.35;;;4.88;;
7359;SDS011;3720;48.274;7.796;2023-12-29T03:28:52;7.30;;;5.20;;
7359;SDS011;3720;48.274;7.796;2023-12-29T03:31:25;7.78;;;5.18;;
7359;SDS011;3720;48.274;7.796;2023-12-29T03:33:56;7.57;;;5.65;;
7359;SDS011;3720;48.274;7.796;2023-12-29T03:36:28;9.93;;;5.25;;
7359;SDS011;3720;48.274;7.796;2023-12-29T03:39:00;8.60;;;5.75;;
7359;SDS011;3720;48.274;7.796;2023-12-29T03:41:34;8.10;;;5.43;;
7359;SDS011;3720;48.274;7.796;2023-12-29T03:44:06;8.88;;;5.82;;
7359;SDS011;3720;48.274;7.796;2023-12-29T03:46:37;7.38;;;5.95;;
7359;SDS011;3720;48.274;7.796;2023-12-29T03:49:10;6.60;;;5.28;;
7359;SDS011;3720;48.274;7.796;2023-12-29T03:51:42;7.40;;;5.60;;
7359;SDS011;3720;48.274;7.796;2023-12-29T03:54:14;8.07;;;5.80;;
7359;SDS011;3720;48.274;7.796;2023-12-29T03:56:48;10.18;;;5.60;;
7359;SDS011;3720;48.274;7.796;2023-12-29T03:59:20;8.23;;;5.43;;
7359;SDS011;3720;48.274;7.796;2023-12-29T04:01:52;7.82;;;5.45;;
7359;SDS011;3720;48.274;7.796;2023-12-29T04:04:24;8.45;;;5.30;;
7359;SDS011;3720;48.274;7.796;2023-12-29T04:06:56;6.78;;;5.20;;
7359;SDS011;3720;48.274;7.796;2023-12-29T04:09:28;7.57;;;4.50;;
7359;SDS011;3720;48.274;7.796;2023-12-29T04:12:01;7.65;;;4.80;;
7359;SDS011;3720;48.274;7.796;2023-12-29T04:14:34;5.95;;;4.50;;
7359;SDS011;3720;48.274;7.796;2023-12-29T04:17:05;5.95;;;4.30;;
7359;SDS011;3720;48.274;7.796;2023-12-29T04:19:43;6.13;;;4.20;;
7359;SDS011;3720;48.274;7.796;2023-12-29T04:22:15;6.60;;;4.47;;
7359;SDS011;3720;48.274;7.796;2023-12-29T04:24:47;6.00;;;4.30;;
7359;SDS011;3720;48.274;7.796;2023-12-29T04:27:22;7.45;;;4.47;;
7359;SDS011;3720;48.274;7.796;2023-12-29T04:29:53;5.35;;;4.40;;
7359;SDS011;3720;48.274;7.796;2023-12-29T04:32:25;9.35;;;4.60;;
7359;SDS011;3720;48.274;7.796;2023-12-29T04:34:57;6.63;;;4.78;;
7359;SDS011;3720;48.274;7.796;2023-12-29T04:37:29;6.40;;;4.43;;
7359;SDS011;3720;48.274;7.796;2023-12-29T04:40:01;8.07;;;4.47;;
7359;SDS011;3720;48.274;7.796;2023-12-29T04:42:34;5.93;;;4.35;;
7359;SDS011;3720;48.274;7.796;2023-12-29T04:45:06;7.07;;;5.00;;
7359;SDS011;3720;48.274;7.796;2023-12-29T04:47:38;7.35;;;4.72;;
7359;SDS011;3720;48.274;7.796;2023-12-29T04:50:10;7.82;;;5.20;;
7359;SDS011;3720;48.274;7.796;2023-12-29T04:52:42;5.78;;;4.53;;
7359;SDS011;3720;48.274;7.796;2023-12-29T04:55:13;7.68;;;4.90;;
7359;SDS011;3720;48.274;7.796;2023-12-29T04:57:47;7.45;;;4.80;;
7359;SDS011;3720;48.274;7.796;2023-12-29T05:00:19;7.63;;;4.90;;
7359;SDS011;3720;48.274;7.796;2023-12-29T05:02:51;7.80;;;5.05;;
7359;SDS011;3720;48.274;7.796;2023-12-29T05:05:22;6.63;;;4.85;;
7359;SDS011;3720;48.274;7.796;2023-12-29T05:07:54;6.68;;;4.82;;
7359;SDS011;3720;48.274;7.796;2023-12-29T05:10:26;6.53;;;4.95;;
7359;SDS011;3720;48.274;7.796;2023-12-29T05:12:59;7.45;;;4.90;;
7359;SDS011;3720;48.274;7.796;2023-12-29T05:15:31;6.97;;;5.00;;
7359;SDS011;3720;48.274;7.796;2023-12-29T05:18:03;7.75;;;4.85;;
7359;SDS011;3720;48.274;7.796;2023-12-29T05:20:36;9.88;;;5.22;;
7359;SDS011;3720;48.274;7.796;2023-12-29T05:23:08;6.72;;;5.20;;
7359;SDS011;3720;48.274;7.796;2023-12-29T05:25:40;8.80;;;4.93;;
7359;SDS011;3720;48.274;7.796;2023-12-29T05:28:13;6.75;;;4.78;;
7359;SDS011;3720;48.274;7.796;2023-12-29T05:30:45;7.43;;;4.93;;
7359;SDS011;3720;48.274;7.796;2023-12-29T05:33:17;7.10;;;5.00;;
7359;SDS011;3720;48.274;7.796;2023-12-29T05:35:49;8.15;;;4.40;;
7359;SDS011;3720;48.274;7.796;2023-12-29T05:38:21;6.07;;;4.63;;
7359;SDS011;3720;48.274;7.796;2023-12-29T05:40:52;7.55;;;4.70;;
7359;SDS011;3720;48.274;7.796;2023-12-29T05:43:26;6.28;;;4.50;;
7359;SDS011;3720;48.274;7.796;2023-12-29T05:45:58;6.05;;;4.50;;
7359;SDS011;3720;48.274;7.796;2023-12-29T05:48:30;7.03;;;4.60;;
7359;SDS011;3720;48.274;7.796;2023-12-29T05:51:05;7.00;;;4.70;;
7359;SDS011;3720;48.274;7.796;2023-12-29T05:53:39;8.40;;;4.65;;
7359;SDS011;3720;48.274;7.796;2023-12-29T05:56:11;7.00;;;4.50;;
7359;SDS011;3720;48.274;7.796;2023-12-29T05:58:46;8.20;;;4.47;;
7359;SDS011;3720;48.274;7.796;2023-12-29T06:01:18;8.70;;;4.30;;
7359;SDS011;3720;48.274;7.796;2023-12-29T06:03:49;6.03;;;4.40;;
7359;SDS011;3720;48.274;7.796;2023-12-29T06:06:21;8.02;;;4.78;;
7359;SDS011;3720;48.274;7.796;2023-12-29T06:08:53;6.63;;;4.80;;
7359;SDS011;3720;48.274;7.796;2023-12-29T06:11:25;5.60;;;4.50;;
7359;SDS011;3720;48.274;7.796;2023-12-29T06:13:59;9.50;;;4.90;;
7359;SDS011;3720;48.274;7.796;2023-12-29T06:16:31;7.55;;;4.82;;
7359;SDS011;3720;48.274;7.796;2023-12-29T06:19:03;7.95;;;5.03;;
7359;SDS011;3720;48.274;7.796;2023-12-29T06:21:40;7.78;;;4.80;;
7359;SDS011;3720;48.274;7.796;2023-12-29T06:24:12;7.93;;;4.70;;
7359;SDS011;3720;48.274;7.796;2023-12-29T06:26:45;6.88;;;4.80;;
7359;SDS011;3720;48.274;7.796;2023-12-29T06:29:19;6.18;;;4.50;;
7359;SDS011;3720;48.274;7.796;2023-12-29T06:31:51;6.85;;;4.57;;
7359;SDS011;3720;48.274;7.796;2023-12-29T06:34:23;6.93;;;4.35;;
7359;SDS011;3720;48.274;7.796;2023-12-29T06:36:55;7.07;;;4.72;;
7359;SDS011;3720;48.274;7.796;2023-12-29T06:39:27;5.28;;;4.20;;
7359;SDS011;3720;48.274;7.796;2023-12-29T06:41:59;6.60;;;4.20;;
7359;SDS011;3720;48.274;7.796;2023-12-29T06:44:32;6.03;;;4.30;;
7359;SDS011;3720;48.274;7.796;2023-12-29T06:47:04;6.63;;;3.90;;
7359;SDS011;3720;48.274;7.796;2023-12-29T06:49:37;5.35;;;3.67;;
7359;SDS011;3720;48.274;7.796;2023-12-29T06:52:08;5.57;;;3.90;;
7359;SDS011;3720;48.274;7.796;2023-12-29T06:54:40;5.07;;;3.80;;
7359;SDS011;3720;48.274;7.796;2023-12-29T06:57:12;4.88;;;3.75;;
7359;SDS011;3720;48.274;7.796;2023-12-29T06:59:48;6.13;;;4.10;;
7359;SDS011;3720;48.274;7.796;2023-12-29T07:02:20;6.53;;;3.92;;
7359;SDS011;3720;48.274;7.796;2023-12-29T07:04:52;3.80;;;3.35;;
7359;SDS011;3720;48.274;7.796;2023-12-29T07:07:24;7.35;;;3.60;;
7359;SDS011;3720;48.274;7.796;2023-12-29T07:09:56;3.65;;;3.20;;
7359;SDS011;3720;48.274;7.796;2023-12-29T07:12:28;4.60;;;3.58;;
7359;SDS011;3720;48.274;7.796;2023-12-29T07:15:01;4.85;;;3.50;;
7359;SDS011;3720;48.274;7.796;2023-12-29T07:17:33;4.88;;;3.50;;
7359;SDS011;3720;48.274;7.796;2023-12-29T07:20:06;4.30;;;3.22;;
7359;SDS011;3720;48.274;7.796;2023-12-29T07:22:38;4.57;;;3.70;;
7359;SDS011;3720;48.274;7.796;2023-12-29T07:25:10;5.97;;;3.50;;
7359;SDS011;3720;48.274;7.796;2023-12-29T07:27:43;4.18;;;3.47;;
7359;SDS011;3720;48.274;7.796;2023-12-29T07:30:17;5.00;;;3.72;;
7359;SDS011;3720;48.274;7.796;2023-12-29T07:32:49;8.00;;;4.20;;
7359;SDS011;3720;48.274;7.796;2023-12-29T07:35:21;4.88;;;3.88;;
7359;SDS011;3720;48.274;7.796;2023-12-29T07:37:53;5.15;;;3.78;;
7359;SDS011;3720;48.274;7.796;2023-12-29T07:40:25;5.47;;;3.83;;
7359;SDS011;3720;48.274;7.796;2023-12-29T07:42:57;4.93;;;3.78;;
7359;SDS011;3720;48.274;7.796;2023-12-29T07:45:30;6.70;;;4.00;;
7359;SDS011;3720;48.274;7.796;2023-12-29T07:48:02;7.53;;;4.25;;
7359;SDS011;3720;48.274;7.796;2023-12-29T07:50:35;5.55;;;3.80;;
7359;SDS011;3720;48.274;7.796;2023-12-29T07:53:07;5.53;;;3.88;;
7359;SDS011;3720;48.274;7.796;2023-12-29T07:55:38;5.10;;;3.65;;
7359;SDS011;3720;48.274;7.796;2023-12-29T07:58:10;6.45;;;3.88;;
7359;SDS011;3720;48.274;7.796;2023-12-29T08:00:44;4.63;;;3.60;;
7359;SDS011;3720;48.274;7.796;2023-12-29T08:03:16;6.00;;;3.78;;
7359;SDS011;3720;48.274;7.796;2023-12-29T08:05:48;5.97;;;3.78;;
7359;SDS011;3720;48.274;7.796;2023-12-29T08:08:20;4.50;;;3.63;;
7359;SDS011;3720;48.274;7.796;2023-12-29T08:10:52;4.85;;;3.80;;
7359;SDS011;3720;48.274;7.796;2023-12-29T08:13:24;5.88;;;3.45;;
7359;SDS011;3720;48.274;7.796;2023-12-29T08:15:58;4.97;;;3.50;;
7359;SDS011;3720;48.274;7.796;2023-12-29T08:18:30;4.93;;;3.72;;
7359;SDS011;3720;48.274;7.796;2023-12-29T08:21:02;5.18;;;3.40;;
7359;SDS011;3720;48.274;7.796;2023-12-29T08:23:33;6.50;;;3.60;;
7359;SDS011;3720;48.274;7.796;2023-12-29T08:26:06;4.57;;;3.28;;
7359;SDS011;3720;48.274;7.796;2023-12-29T08:28:37;4.55;;;3.45;;
7359;SDS011;3720;48.274;7.796;2023-12-29T08:31:10;5.25;;;3.30;;
7359;SDS011;3720;48.274;7.796;2023-12-29T08:33:42;3.60;;;2.97;;
7359;SDS011;3720;48.274;7.796;2023-12-29T08:36:17;4.60;;;3.30;;
7359;SDS011;3720;48.274;7.796;2023-12-29T08:38:49;5.38;;;3.35;;
7359;SDS011;3720;48.274;7.796;2023-12-29T08:41:23;4.35;;;3.10;;
7359;SDS011;3720;48.274;7.796;2023-12-29T08:43:54;4.45;;;2.97;;
7359;SDS011;3720;48.274;7.796;2023-12-29T08:46:28;4.00;;;3.00;;
7359;SDS011;3720;48.274;7.796;2023-12-29T08:49:00;4.20;;;3.30;;
7359;SDS011;3720;48.274;7.796;2023-12-29T08:51:31;3.90;;;2.90;;
7359;SDS011;3720;48.274;7.796;2023-12-29T08:54:03;4.20;;;3.00;;
7359;SDS011;3720;48.274;7.796;2023-12-29T08:56:37;4.03;;;2.70;;
7359;SDS011;3720;48.274;7.796;2023-12-29T08:59:08;4.47;;;2.80;;
7359;SDS011;3720;48.274;7.796;2023-12-29T09:01:42;3.97;;;2.78;;
7359;SDS011;3720;48.274;7.796;2023-12-29T09:04:14;4.95;;;2.75;;
7359;SDS011;3720;48.274;7.796;2023-12-29T09:06:45;3.83;;;2.90;;
7359;SDS011;3720;48.274;7.796;2023-12-29T09:09:17;4.03;;;2.70;;
7359;SDS011;3720;48.274;7.796;2023-12-29T09:11:49;3.60;;;2.60;;
7359;SDS011;3720;48.274;7.796;2023-12-29T09:14:21;4.68;;;2.60;;
7359;SDS011;3720;48.274;7.796;2023-12-29T09:16:54;5.95;;;2.88;;
7359;SDS011;3720;48.274;7.796;2023-12-29T09:19:26;3.03;;;2.40;;
7359;SDS011;3720;48.274;7.796;2023-12-29T09:21:58;3.60;;;2.50;;
7359;SDS011;3720;48.274;7.796;2023-12-29T09:24:30;5.20;;;2.67;;
7359;SDS011;3720;48.274;7.796;2023-12-29T09:27:02;3.83;;;2.90;;
7359;SDS011;3720;48.274;7.796;2023-12-29T09:29:34;3.92;;;2.80;;
7359;SDS011;3720;48.274;7.796;2023-12-29T09:32:07;6.00;;;2.70;;
7359;SDS011;3720;48.274;7.796;2023-12-29T09:34:39;5.53;;;2.67;;
7359;SDS011;3720;48.274;7.796;2023-12-29T09:37:10;3.42;;;2.40;;
7359;SDS011;3720;48.274;7.796;2023-12-29T09:39:42;3.47;;;2.45;;
7359;SDS011;3720;48.274;7.796;2023-12-29T09:42:17;3.58;;;2.58;;
7359;SDS011;3720;48.274;7.796;2023-12-29T09:44:53;3.75;;;2.75;;
7359;SDS011;3720;48.274;7.796;2023-12-29T09:47:26;3.78;;;2.60;;
7359;SDS011;3720;48.274;7.796;2023-12-29T09:49:59;4.03;;;2.50;;
7359;SDS011;3720;48.274;7.796;2023-12-29T09:52:31;3.72;;;2.47;;
7359;SDS011;3720;48.274;7.796;2023-12-29T09:55:04;3.50;;;2.45;;
7359;SDS011;3720;48.274;7.796;2023-12-29T09:57:39;3.67;;;2.60;;
7359;SDS011;3720;48.274;7.796;2023-12-29T10:00:12;4.53;;;2.88;;
7359;SDS011;3720;48.274;7.796;2023-12-29T10:02:49;4.72;;;2.40;;
7359;SDS011;3720;48.274;7.796;2023-12-29T10:05:23;4.47;;;2.90;;
7359;SDS011;3720;48.274;7.796;2023-12-29T10:07:55;3.75;;;2.60;;
7359;SDS011;3720;48.274;7.796;2023-12-29T10:10:33;3.15;;;2.40;;
7359;SDS011;3720;48.274;7.796;2023-12-29T10:13:09;3.15;;;2.60;;
7359;SDS011;3720;48.274;7.796;2023-12-29T10:15:46;4.75;;;2.55;;
7359;SDS011;3720;48.274;7.796;2023-12-29T10:18:27;4.05;;;2.63;;
7359;SDS011;3720;48.274;7.796;2023-12-29T10:21:06;4.18;;;2.25;;
7359;SDS011;3720;48.274;7.796;2023-12-29T10:23:50;2.80;;;2.38;;
7359;SDS011;3720;48.274;7.796;2023-12-29T10:26:25;3.28;;;2.45;;
7359;SDS011;3720;48.274;7.796;2023-12-29T10:28:58;2.75;;;2.30;;
7359;SDS011;3720;48.274;7.796;2023-12-29T10:31:30;2.72;;;2.20;;
7359;SDS011;3720;48.274;7.796;2023-12-29T10:34:19;2.85;;;2.08;;
7359;SDS011;3720;48.274;7.796;2023-12-29T10:36:58;3.38;;;2.40;;
7359;SDS011;3720;48.274;7.796;2023-12-29T10:39:31;4.85;;;2.30;;
7359;SDS011;3720;48.274;7.796;2023-12-29T10:42:03;4.75;;;2.25;;
7359;SDS011;3720;48.274;7.796;2023-12-29T10:44:36;3.75;;;2.08;;
7359;SDS011;3720;48.274;7.796;2023-12-29T10:47:09;4.32;;;2.25;;
7359;SDS011;3720;48.274;7.796;2023-12-29T10:49:43;3.65;;;2.20;;
7359;SDS011;3720;48.274;7.796;2023-12-29T10:52:15;3.13;;;2.22;;
7359;SDS011;3720;48.274;7.796;2023-12-29T10:54:47;2.63;;;1.88;;
7359;SDS011;3720;48.274;7.796;2023-12-29T10:57:19;2.65;;;2.03;;
7359;SDS011;3720;48.274;7.796;2023-12-29T10:59:54;2.60;;;2.17;;
7359;SDS011;3720;48.274;7.796;2023-12-29T11:02:26;3.42;;;2.40;;
7359;SDS011;3720;48.274;7.796;2023-12-29T11:05:06;2.95;;;2.25;;
7359;SDS011;3720;48.274;7.796;2023-12-29T11:07:40;2.88;;;2.30;;
7359;SDS011;3720;48.274;7.796;2023-12-29T11:10:12;4.65;;;2.20;;
7359;SDS011;3720;48.274;7.796;2023-12-29T11:12:44;3.90;;;2.47;;
7359;SDS011;3720;48.274;7.796;2023-12-29T11:15:18;3.17;;;2.47;;
7359;SDS011;3720;48.274;7.796;2023-12-29T11:17:50;3.28;;;2.40;;
7359;SDS011;3720;48.274;7.796;2023-12-29T11:20:25;3.00;;;2.45;;
7359;SDS011;3720;48.274;7.796;2023-12-29T11:22:57;4.40;;;2.35;;
7359;SDS011;3720;48.274;7.796;2023-12-29T11:25:31;4.65;;;2.38;;
7359;SDS011;3720;48.274;7.796;2023-12-29T11:28:03;2.22;;;1.77;;
7359;SDS011;3720;48.274;7.796;2023-12-29T11:30:36;3.47;;;1.90;;
7359;SDS011;3720;48.274;7.796;2023-12-29T11:33:10;2.72;;;1.92;;
7359;SDS011;3720;48.274;7.796;2023-12-29T11:35:51;3.38;;;2.20;;
7359;SDS011;3720;48.274;7.796;2023-12-29T11:38:29;1.92;;;1.80;;
7359;SDS011;3720;48.274;7.796;2023-12-29T11:41:13;4.22;;;2.30;;
7359;SDS011;3720;48.274;7.796;2023-12-29T11:43:58;3.25;;;1.95;;
7359;SDS011;3720;48.274;7.796;2023-12-29T11:46:34;2.83;;;2.00;;
7359;SDS011;3720;48.274;7.796;2023-12-29T11:49:06;2.50;;;2.08;;
7359;SDS011;3720;48.274;7.796;2023-12-29T11:51:41;2.58;;;1.95;;
7359;SDS011;3720;48.274;7.796;2023-12-29T11:54:21;2.88;;;1.98;;
7359;SDS011;3720;48.274;7.796;2023-12-29T11:56:54;2.00;;;1.80;;
7359;SDS011;3720;48.274;7.796;2023-12-29T11:59:26;2.90;;;2.08;;
7359;SDS011;3720;48.274;7.796;2023-12-29T12:01:58;3.90;;;2.17;;
7359;SDS011;3720;48.274;7.796;2023-12-29T12:04:35;2.65;;;2.05;;
7359;SDS011;3720;48.274;7.796;2023-12-29T12:07:09;3.25;;;2.13;;
7359;SDS011;3720;48.274;7.796;2023-12-29T12:09:44;3.42;;;2.03;;
7359;SDS011;3720;48.274;7.796;2023-12-29T12:15:31;3.20;;;1.90;;
7359;SDS011;3720;48.274;7.796;2023-12-29T12:18:04;3.45;;;2.30;;
7359;SDS011;3720;48.274;7.796;2023-12-29T12:20:38;2.53;;;1.90;;
7359;SDS011;3720;48.274;7.796;2023-12-29T12:23:12;3.10;;;1.85;;
7359;SDS011;3720;48.274;7.796;2023-12-29T12:25:49;3.10;;;2.20;;
7359;SDS011;3720;48.274;7.796;2023-12-29T12:28:23;3.05;;;2.10;;
7359;SDS011;3720;48.274;7.796;2023-12-29T12:31:04;3.70;;;2.05;;
7359;SDS011;3720;48.274;7.796;2023-12-29T12:33:36;4.18;;;1.77;;
7359;SDS011;3720;48.274;7.796;2023-12-29T12:36:08;2.25;;;1.65;;
7359;SDS011;3720;48.274;7.796;2023-12-29T12:38:51;1.60;;;1.30;;
7359;SDS011;3720;48.274;7.796;2023-12-29T12:41:24;1.88;;;1.55;;
7359;SDS011;3720;48.274;7.796;2023-12-29T12:43:57;2.63;;;1.42;;
7359;SDS011;3720;48.274;7.796;2023-12-29T12:46:39;2.88;;;1.52;;
7359;SDS011;3720;48.274;7.796;2023-12-29T12:49:12;2.33;;;1.60;;
7359;SDS011;3720;48.274;7.796;2023-12-29T12:51:45;2.67;;;1.42;;
7359;SDS011;3720;48.274;7.796;2023-12-29T12:54:19;3.20;;;1.55;;
7359;SDS011;3720;48.274;7.796;2023-12-29T12:56:51;2.67;;;1.63;;
7359;SDS011;3720;48.274;7.796;2023-12-29T12:59:23;2.97;;;1.50;;
7359;SDS011;3720;48.274;7.796;2023-12-29T13:01:55;1.90;;;1.55;;
7359;SDS011;3720;48.274;7.796;2023-12-29T13:04:27;2.28;;;1.52;;
7359;SDS011;3720;48.274;7.796;2023-12-29T13:06:59;2.13;;;1.30;;
7359;SDS011;3720;48.274;7.796;2023-12-29T13:09:32;1.58;;;1.30;;
7359;SDS011;3720;48.274;7.796;2023-12-29T13:12:08;2.53;;;1.50;;
7359;SDS011;3720;48.274;7.796;2023-12-29T13:14:40;3.00;;;1.37;;
7359;SDS011;3720;48.274;7.796;2023-12-29T13:17:12;1.92;;;1.52;;
7359;SDS011;3720;48.274;7.796;2023-12-29T13:19:46;1.83;;;1.23;;
7359;SDS011;3720;48.274;7.796;2023-12-29T13:22:27;2.17;;;1.20;;
7359;SDS011;3720;48.274;7.796;2023-12-29T13:25:01;1.80;;;1.30;;
7359;SDS011;3720;48.274;7.796;2023-12-29T13:27:37;1.52;;;1.30;;
7359;SDS011;3720;48.274;7.796;2023-12-29T13:30:11;2.80;;;1.30;;
7359;SDS011;3720;48.274;7.796;2023-12-29T13:32:45;1.30;;;1.20;;
7359;SDS011;3720;48.274;7.796;2023-12-29T13:35:19;1.65;;;1.30;;
7359;SDS011;3720;48.274;7.796;2023-12-29T13:38:00;2.33;;;1.30;;
7359;SDS011;3720;48.274;7.796;2023-12-29T13:40:38;1.98;;;1.20;;
7359;SDS011;3720;48.274;7.796;2023-12-29T13:43:15;1.52;;;1.23;;
7359;SDS011;3720;48.274;7.796;2023-12-29T13:45:49;2.03;;;1.23;;
7359;SDS011;3720;48.274;7.796;2023-12-29T13:48:21;2.67;;;1.50;;
7359;SDS011;3720;48.274;7.796;2023-12-29T13:50:54;1.73;;;1.30;;
7359;SDS011;3720;48.274;7.796;2023-12-29T13:53:26;1.98;;;1.40;;
7359;SDS011;3720;48.274;7.796;2023-12-29T13:56:07;1.90;;;1.33;;
7359;SDS011;3720;48.274;7.796;2023-12-29T13:58:39;2.08;;;1.20;;
7359;SDS011;3720;48.274;7.796;2023-12-29T14:01:11;2.45;;;1.45;;
7359;SDS011;3720;48.274;7.796;2023-12-29T14:03:46;1.83;;;1.33;;
7359;SDS011;3720;48.274;7.796;2023-12-29T14:06:26;1.50;;;1.23;;
7359;SDS011;3720;48.274;7.796;2023-12-29T14:09:00;2.45;;;1.40;;
7359;SDS011;3720;48.274;7.796;2023-12-29T14:11:34;3.15;;;1.30;;
7359;SDS011;3720;48.274;7.796;2023-12-29T14:14:06;2.75;;;1.52;;
7359;SDS011;3720;48.274;7.796;2023-12-29T14:16:39;1.63;;;1.40;;
7359;SDS011;3720;48.274;7.796;2023-12-29T14:19:12;3.35;;;1.55;;
7359;SDS011;3720;48.274;7.796;2023-12-29T14:21:44;2.33;;;1.30;;
7359;SDS011;3720;48.274;7.796;2023-12-29T14:24:18;2.88;;;1.60;;
7359;SDS011;3720;48.274;7.796;2023-12-29T14:26:55;2.53;;;1.40;;
7359;SDS011;3720;48.274;7.796;2023-12-29T14:29:28;2.50;;;1.40;;
7359;SDS011;3720;48.274;7.796;2023-12-29T14:32:11;2.85;;;1.60;;
7359;SDS011;3720;48.274;7.796;2023-12-29T14:34:42;2.25;;;1.58;;
7359;SDS011;3720;48.274;7.796;2023-12-29T14:37:16;3.15;;;1.50;;
7359;SDS011;3720;48.274;7.796;2023-12-29T14:39:48;2.05;;;1.40;;
7359;SDS011;3720;48.274;7.796;2023-12-29T14:42:22;3.38;;;1.25;;
7359;SDS011;3720;48.274;7.796;2023-12-29T14:44:54;2.80;;;1.42;;
7359;SDS011;3720;48.274;7.796;2023-12-29T14:47:26;2.28;;;1.45;;
7359;SDS011;3720;48.274;7.796;2023-12-29T14:49:57;4.30;;;1.83;;
7359;SDS011;3720;48.274;7.796;2023-12-29T14:52:29;3.70;;;1.90;;
7359;SDS011;3720;48.274;7.796;2023-12-29T14:55:01;2.88;;;2.15;;
7359;SDS011;3720;48.274;7.796;2023-12-29T14:57:34;2.95;;;2.10;;
7359;SDS011;3720;48.274;7.796;2023-12-29T15:00:07;3.40;;;2.50;;
7359;SDS011;3720;48.274;7.796;2023-12-29T15:02:39;4.03;;;2.55;;
7359;SDS011;3720;48.274;7.796;2023-12-29T15:05:11;5.85;;;3.25;;
7359;SDS011;3720;48.274;7.796;2023-12-29T15:07:43;5.07;;;3.40;;
7359;SDS011;3720;48.274;7.796;2023-12-29T15:10:15;8.38;;;3.83;;
7359;SDS011;3720;48.274;7.796;2023-12-29T15:12:48;6.20;;;4.22;;
7359;SDS011;3720;48.274;7.796;2023-12-29T15:15:20;6.57;;;3.90;;
7359;SDS011;3720;48.274;7.796;2023-12-29T15:17:52;6.93;;;3.85;;
7359;SDS011;3720;48.274;7.796;2023-12-29T15:20:24;5.72;;;3.80;;
7359;SDS011;3720;48.274;7.796;2023-12-29T15:22:56;6.05;;;4.40;;
7359;SDS011;3720;48.274;7.796;2023-12-29T15:25:29;7.75;;;4.70;;
7359;SDS011;3720;48.274;7.796;2023-12-29T15:28:02;6.70;;;4.20;;
7359;SDS011;3720;48.274;7.796;2023-12-29T15:30:34;5.53;;;4.28;;
7359;SDS011;3720;48.274;7.796;2023-12-29T15:33:06;5.85;;;3.65;;
7359;SDS011;3720;48.274;7.796;2023-12-29T15:35:38;5.78;;;3.85;;
7359;SDS011;3720;48.274;7.796;2023-12-29T15:38:10;5.35;;;3.45;;
7359;SDS011;3720;48.274;7.796;2023-12-29T15:40:42;5.75;;;3.50;;
7359;SDS011;3720;48.274;7.796;2023-12-29T15:43:16;6.68;;;3.35;;
7359;SDS011;3720;48.274;7.796;2023-12-29T15:45:48;5.55;;;3.53;;
7359;SDS011;3720;48.274;7.796;2023-12-29T15:48:19;4.82;;;3.28;;
7359;SDS011;3720;48.274;7.796;2023-12-29T15:50:51;6.00;;;3.00;;
7359;SDS011;3720;48.274;7.796;2023-12-29T15:53:23;4.47;;;2.60;;
7359;SDS011;3720;48.274;7.796;2023-12-29T15:55:55;3.67;;;2.42;;